createdAt,value
2023-03-16T00:00:37.023Z,70.3
2023-03-16T00:01:37.118Z,70.3
2023-03-16T00:02:37.021Z,70.6
2023-03-16T00:03:37.144Z,70.9
2023-03-16T00:04:37.012Z,70.9
2023-03-16T00:05:37.015Z,70.7
2023-03-16T00:06:37.017Z,70.8
2023-03-16T00:07:37.010Z,70.5
2023-03-16T00:08:37.010Z,70.5
2023-03-16T00:09:37.023Z,70.4
2023-03-16T00:10:37.014Z,70.1
2023-03-16T00:11:37.022Z,69.9
2023-03-16T00:13:37.017Z,70.2
2023-03-16T00:14:37.025Z,70.5
2023-03-16T00:15:37.018Z,70.5
2023-03-16T00:16:37.069Z,70.1
2023-03-16T00:17:37.021Z,69.9
2023-03-16T00:18:37.009Z,69.6
2023-03-16T00:19:37.005Z,69.3
2023-03-16T00:21:37.011Z,69.2
2023-03-16T00:22:37.073Z,69.4
2023-03-16T00:23:37.017Z,69.4
2023-03-16T00:24:37.009Z,69.3
2023-03-16T00:26:37.147Z,70
2023-03-16T00:27:37.028Z,70.1
2023-03-16T00:28:37.005Z,70.8
2023-03-16T00:29:37.014Z,70.5
2023-03-16T00:30:37.006Z,70.6
2023-03-16T00:31:37.167Z,70.3
2023-03-16T00:32:37.130Z,70.2
2023-03-16T00:34:37.017Z,69.8
2023-03-16T00:35:37.020Z,69.4
2023-03-16T00:36:37.011Z,69.5
2023-03-16T00:37:37.084Z,69.7
2023-03-16T00:38:37.004Z,69.6
2023-03-16T00:39:37.021Z,69.6
2023-03-16T00:40:37.000Z,69.9
2023-03-16T00:41:37.001Z,69.7
2023-03-16T00:42:37.014Z,69.1
2023-03-16T00:43:37.000Z,68.9
2023-03-16T00:44:37.008Z,69.1
2023-03-16T00:45:37.112Z,69.4
2023-03-16T00:46:37.061Z,69.6
2023-03-16T00:47:36.995Z,69.7
2023-03-16T00:48:37.070Z,70
2023-03-16T00:49:37.004Z,70.1
2023-03-16T00:50:37.003Z,70.2
2023-03-16T00:51:37.009Z,70.2
2023-03-16T00:52:37.001Z,70.2
2023-03-16T00:53:37.033Z,70.3
2023-03-16T00:55:36.994Z,71.1
2023-03-16T00:56:36.994Z,71.5
2023-03-16T00:57:37.015Z,71.6
2023-03-16T00:58:36.994Z,71.6
2023-03-16T00:59:36.991Z,71.2
2023-03-16T01:00:36.985Z,71.2
2023-03-16T01:01:37.165Z,70.8
2023-03-16T01:02:37.013Z,71
2023-03-16T01:03:37.051Z,71.2
2023-03-16T01:04:37.000Z,71.2
2023-03-16T01:05:36.989Z,71.5
2023-03-16T01:06:39.768Z,71.8
2023-03-16T01:07:36.997Z,71.4
2023-03-16T01:08:36.996Z,71.7
2023-03-16T01:09:37.228Z,71.9
2023-03-16T01:10:36.990Z,71.9
2023-03-16T01:11:36.994Z,71.9
2023-03-16T01:12:36.993Z,71.9
2023-03-16T01:13:36.988Z,71.5
2023-03-16T01:14:37.036Z,71.4
2023-03-16T01:16:37.029Z,71.7
2023-03-16T01:17:36.989Z,72
2023-03-16T01:18:37.028Z,72.2
2023-03-16T01:19:36.998Z,72.1
2023-03-16T01:20:36.990Z,72.1
2023-03-16T01:21:37.003Z,71.9
2023-03-16T01:22:36.982Z,71.7
2023-03-16T01:23:37.015Z,71.3
2023-03-16T01:24:37.029Z,70.8
2023-03-16T01:25:37.007Z,71.2
2023-03-16T01:26:37.023Z,71.4
2023-03-16T01:27:36.992Z,71.4
2023-03-16T01:28:36.990Z,71.2
2023-03-16T01:29:36.989Z,71
2023-03-16T01:30:37.107Z,71.1
2023-03-16T01:31:36.988Z,71.1
2023-03-16T01:32:37.048Z,71.4
2023-03-16T01:33:37.135Z,71.2
2023-03-16T01:34:37.018Z,71
2023-03-16T01:35:37.051Z,71
2023-03-16T01:36:36.996Z,71
2023-03-16T01:37:36.978Z,70.2
2023-03-16T01:38:36.985Z,69.9
2023-03-16T01:39:36.995Z,70.1
2023-03-16T01:40:36.989Z,70.2
2023-03-16T01:41:36.983Z,70.5
2023-03-16T01:42:36.979Z,70.6
2023-03-16T01:43:37.057Z,70.7
2023-03-16T01:44:36.981Z,70
2023-03-16T01:45:37.011Z,70.3
2023-03-16T01:46:37.055Z,70.8
2023-03-16T01:47:36.990Z,71.1
2023-03-16T01:48:36.984Z,71.3
2023-03-16T01:49:37.022Z,70.9
2023-03-16T01:51:36.988Z,70.5
2023-03-16T01:52:36.976Z,69.7
2023-03-16T01:53:36.983Z,69.6
2023-03-16T01:54:36.980Z,69.3
2023-03-16T01:55:36.985Z,69.7
2023-03-16T01:56:36.993Z,69.8
2023-03-16T01:57:37.083Z,69.5
2023-03-16T01:58:36.978Z,69.5
2023-03-16T01:59:36.983Z,69.8
2023-03-16T02:00:36.987Z,70
2023-03-16T02:01:37.067Z,70.2
2023-03-16T02:02:36.990Z,70.3
2023-03-16T02:04:37.074Z,70.5
2023-03-16T02:05:37.003Z,70.7
2023-03-16T02:06:36.981Z,70.7
2023-03-16T02:07:36.975Z,70.6
2023-03-16T02:08:36.984Z,70.3
2023-03-16T02:09:36.993Z,70.3
2023-03-16T02:10:37.021Z,70.4
2023-03-16T02:11:36.997Z,70.6
2023-03-16T02:12:37.009Z,70.8
2023-03-16T02:13:36.990Z,70.8
2023-03-16T02:14:36.974Z,70.7
2023-03-16T02:15:37.090Z,70.8
2023-03-16T02:16:37.151Z,71.1
2023-03-16T02:17:36.990Z,71.4
2023-03-16T02:18:36.974Z,71.5
2023-03-16T02:19:36.977Z,71.4
2023-03-16T02:20:37.045Z,71.3
2023-03-16T02:21:36.988Z,71.2
2023-03-16T02:22:36.984Z,71
2023-03-16T02:23:36.978Z,70.8
2023-03-16T02:25:37.093Z,70.9
2023-03-16T02:26:36.968Z,70.8
2023-03-16T02:27:36.982Z,70.9
2023-03-16T02:28:36.997Z,71.3
2023-03-16T02:29:36.972Z,71.8
2023-03-16T02:30:36.981Z,71.7
2023-03-16T02:31:36.979Z,71.7
2023-03-16T02:32:37.025Z,71.9
2023-03-16T02:33:36.997Z,71.7
2023-03-16T02:34:36.979Z,71.8
2023-03-16T02:35:37.071Z,71.8
2023-03-16T02:36:37.058Z,71.9
2023-03-16T02:37:36.983Z,71.6
2023-03-16T02:38:36.994Z,71.5
2023-03-16T02:39:36.994Z,71.4
2023-03-16T02:40:36.969Z,71.5
2023-03-16T02:42:36.971Z,71.6
2023-03-16T02:43:36.984Z,71.9
2023-03-16T02:44:36.969Z,72.1
2023-03-16T02:45:37.001Z,72.1
2023-03-16T02:46:37.004Z,72.5
2023-03-16T02:47:36.968Z,72.4
2023-03-16T02:48:36.973Z,72.5
2023-03-16T02:49:36.972Z,72.4
2023-03-16T02:50:37.001Z,72.6
2023-03-16T02:51:36.976Z,72.3
2023-03-16T02:52:36.975Z,72.2
2023-03-16T02:53:36.975Z,72.1
2023-03-16T02:54:36.982Z,72
2023-03-16T02:55:36.972Z,72.8
2023-03-16T02:56:36.977Z,73
2023-03-16T02:57:36.966Z,72.8
2023-03-16T02:58:36.994Z,72.8
2023-03-16T02:59:36.980Z,72.9
2023-03-16T03:00:36.972Z,73.1
2023-03-16T03:01:37.050Z,73.3
2023-03-16T03:03:37.026Z,73.1
2023-03-16T03:04:36.969Z,73.1
2023-03-16T03:05:37.028Z,73.2
2023-03-16T03:06:36.976Z,73.4
2023-03-16T03:07:37.005Z,73.4
2023-03-16T03:08:36.976Z,73.3
2023-03-16T03:09:36.968Z,73.7
2023-03-16T03:10:37.011Z,73.5
2023-03-16T03:11:36.967Z,73.2
2023-03-16T03:12:36.983Z,72.8
2023-03-16T03:13:36.967Z,72.6
2023-03-16T03:14:36.963Z,72.8
2023-03-16T03:15:37.258Z,72.5
2023-03-16T03:16:37.047Z,72.5
2023-03-16T03:17:36.959Z,72.9
2023-03-16T03:18:36.962Z,73.2
2023-03-16T03:19:36.972Z,73.2
2023-03-16T03:20:36.964Z,73
2023-03-16T03:21:36.968Z,73.2
2023-03-16T03:22:37.022Z,73.3
2023-03-16T03:24:36.980Z,73.6
2023-03-16T03:25:36.966Z,73.4
2023-03-16T03:26:36.963Z,73
2023-03-16T03:27:37.010Z,72.4
2023-03-16T03:28:36.967Z,71.9
2023-03-16T03:29:36.997Z,72
2023-03-16T03:30:36.975Z,72.1
2023-03-16T03:31:36.998Z,71.8
2023-03-16T03:32:37.030Z,71.9
2023-03-16T03:33:36.958Z,72.5
2023-03-16T03:34:36.958Z,72.6
2023-03-16T03:35:37.036Z,72.5
2023-03-16T03:36:36.964Z,72.6
2023-03-16T03:37:36.973Z,73
2023-03-16T03:38:36.985Z,73.4
2023-03-16T03:39:36.956Z,73.4
2023-03-16T03:40:36.984Z,73.1
2023-03-16T03:41:36.972Z,73.6
2023-03-16T03:42:37.034Z,73.6
2023-03-16T03:43:36.961Z,73.9
2023-03-16T03:45:37.043Z,73.3
2023-03-16T03:46:37.114Z,73
2023-03-16T03:47:36.965Z,72.9
2023-03-16T03:48:36.986Z,72.9
2023-03-16T03:49:36.959Z,73.1
2023-03-16T03:50:36.954Z,73
2023-03-16T03:52:36.988Z,73.5
2023-03-16T03:53:36.971Z,73.6
2023-03-16T03:54:36.958Z,74.2
2023-03-16T03:55:36.967Z,74.2
2023-03-16T03:56:36.956Z,74.2
2023-03-16T03:57:36.956Z,74.1
2023-03-16T03:58:36.956Z,74.2
2023-03-16T03:59:36.961Z,74.1
2023-03-16T04:00:36.960Z,73.8
2023-03-16T04:01:36.952Z,73.7
2023-03-16T04:02:37.154Z,73.7
2023-03-16T04:03:36.963Z,74.3
2023-03-16T04:04:36.974Z,74.2
2023-03-16T04:06:37.723Z,74.6
2023-03-16T04:07:36.955Z,74.5
2023-03-16T04:08:39.146Z,74.8
2023-03-16T04:09:37.012Z,75.2
2023-03-16T04:10:37.019Z,75.8
2023-03-16T04:11:36.964Z,75.8
2023-03-16T04:12:36.955Z,75.8
2023-03-16T04:13:36.971Z,75.9
2023-03-16T04:14:36.963Z,76.2
2023-03-16T04:15:36.953Z,76.5
2023-03-16T04:16:37.035Z,76.4
2023-03-16T04:17:36.956Z,76.2
2023-03-16T04:18:38.371Z,75.9
2023-03-16T04:19:36.955Z,76.7
2023-03-16T04:20:36.956Z,76.6
2023-03-16T04:21:36.953Z,76.3
2023-03-16T04:22:36.960Z,76.1
2023-03-16T04:23:36.946Z,76
2023-03-16T04:24:37.017Z,75.9
2023-03-16T04:25:36.951Z,75.6
2023-03-16T04:27:36.948Z,75.9
2023-03-16T04:28:36.944Z,75.7
2023-03-16T04:29:36.946Z,75.4
2023-03-16T04:30:37.038Z,75.7
2023-03-16T04:31:36.936Z,75.6
2023-03-16T04:32:36.991Z,75.7
2023-03-16T04:33:36.945Z,75.9
2023-03-16T04:34:36.953Z,75.8
2023-03-16T04:35:36.999Z,76
2023-03-16T04:36:36.950Z,75.9
2023-03-16T04:37:36.951Z,76.1
2023-03-16T04:38:36.968Z,75.6
2023-03-16T04:39:36.946Z,75.6
2023-03-16T04:40:36.976Z,75.6
2023-03-16T04:41:36.935Z,75.3
2023-03-16T04:42:36.946Z,75.4
2023-03-16T04:43:36.973Z,75.7
2023-03-16T04:44:37.011Z,76.2
2023-03-16T04:45:36.960Z,75.9
2023-03-16T04:46:37.092Z,75.6
2023-03-16T04:48:36.987Z,75.7
2023-03-16T04:49:36.949Z,75.7
2023-03-16T04:50:36.938Z,75.3
2023-03-16T04:51:36.948Z,75.1
2023-03-16T04:52:36.962Z,74.8
2023-03-16T04:53:36.952Z,74.5
2023-03-16T04:54:36.989Z,74.3
2023-03-16T04:55:36.953Z,74.7
2023-03-16T04:56:36.933Z,74.9
2023-03-16T04:57:36.948Z,74.7
2023-03-16T04:58:36.947Z,75.2
2023-03-16T04:59:36.945Z,75.3
2023-03-16T05:01:36.995Z,74.7
2023-03-16T05:02:36.942Z,74.7
2023-03-16T05:03:36.940Z,74.8
2023-03-16T05:04:36.943Z,74.9
2023-03-16T05:05:37.012Z,74.9
2023-03-16T05:06:36.945Z,75.4
2023-03-16T05:07:36.943Z,75.5
2023-03-16T05:08:44.137Z,75.6
2023-03-16T05:09:36.935Z,75
2023-03-16T05:10:36.929Z,75.1
2023-03-16T05:12:36.934Z,75.1
2023-03-16T05:13:36.939Z,75.4
2023-03-16T05:14:36.938Z,75.5
2023-03-16T05:15:37.037Z,75.6
2023-03-16T05:16:36.942Z,75.2
2023-03-16T05:17:36.952Z,75
2023-03-16T05:18:36.939Z,75
2023-03-16T05:20:36.938Z,74.8
2023-03-16T05:21:36.928Z,74.2
2023-03-16T05:22:36.933Z,73.7
2023-03-16T05:23:36.968Z,73.9
2023-03-16T05:24:36.943Z,74.3
2023-03-16T05:25:36.941Z,74.7
2023-03-16T05:26:36.927Z,75.2
2023-03-16T05:28:36.938Z,74.2
2023-03-16T05:29:36.935Z,74.1
2023-03-16T05:30:36.945Z,74.2
2023-03-16T05:31:36.987Z,73.6
2023-03-16T05:33:36.936Z,74.2
2023-03-16T05:34:36.928Z,74.4
2023-03-16T05:35:36.969Z,74.7
2023-03-16T05:36:36.953Z,74.4
2023-03-16T05:37:36.994Z,74.7
2023-03-16T05:38:36.942Z,74.9
2023-03-16T05:39:36.953Z,74.4
2023-03-16T05:41:37.026Z,74.6
2023-03-16T05:42:36.968Z,74.6
2023-03-16T05:43:36.948Z,75
2023-03-16T05:44:36.961Z,75.3
2023-03-16T05:45:36.934Z,75.6
2023-03-16T05:46:36.957Z,76
2023-03-16T05:47:36.944Z,75.6
2023-03-16T05:49:36.933Z,76.1
2023-03-16T05:50:36.966Z,76.1
2023-03-16T05:51:36.951Z,76.4
2023-03-16T05:52:36.933Z,77
2023-03-16T05:54:36.948Z,77.3
2023-03-16T05:55:36.929Z,77.6
2023-03-16T05:56:36.933Z,77.9
2023-03-16T05:57:36.935Z,77.7
2023-03-16T05:58:36.930Z,78.3
2023-03-16T05:59:36.939Z,77.9
2023-03-16T06:00:36.948Z,78.2
2023-03-16T06:02:36.976Z,78.5
2023-03-16T06:03:37.024Z,78.4
2023-03-16T06:04:36.936Z,78.4
2023-03-16T06:05:36.934Z,78
2023-03-16T06:06:36.929Z,78.1
2023-03-16T06:07:36.932Z,78.3
2023-03-16T06:09:36.929Z,77.3
2023-03-16T06:10:36.930Z,77.3
2023-03-16T06:11:36.931Z,77.3
2023-03-16T06:12:36.934Z,77.1
2023-03-16T06:13:36.986Z,77.1
2023-03-16T06:15:36.935Z,77
2023-03-16T06:16:37.022Z,77.2
2023-03-16T06:17:36.958Z,77.2
2023-03-16T06:18:36.921Z,77.5
2023-03-16T06:19:36.931Z,77.5
2023-03-16T06:20:36.928Z,77.7
2023-03-16T06:21:36.990Z,77.4
2023-03-16T06:23:36.923Z,76.8
2023-03-16T06:24:36.934Z,77
2023-03-16T06:25:39.506Z,76.1
2023-03-16T06:26:36.939Z,76.2
2023-03-16T06:27:36.929Z,75.4
2023-03-16T06:28:36.971Z,75.6
2023-03-16T06:29:36.921Z,75.5
2023-03-16T06:30:36.926Z,75.3
2023-03-16T06:31:37.000Z,75.2
2023-03-16T06:32:36.975Z,75.2
2023-03-16T06:34:38.273Z,75.1
2023-03-16T06:35:36.963Z,75.3
2023-03-16T06:36:36.922Z,75.2
2023-03-16T06:37:36.927Z,74.9
2023-03-16T06:38:36.933Z,75.2
2023-03-16T06:39:36.921Z,75.2
2023-03-16T06:40:36.926Z,74.9
2023-03-16T06:42:36.955Z,74.9
2023-03-16T06:43:36.985Z,74.3
2023-03-16T06:44:36.950Z,74.4
2023-03-16T06:45:36.988Z,73.9
2023-03-16T06:46:37.002Z,73.7
2023-03-16T06:47:36.942Z,73.9
2023-03-16T06:48:36.922Z,73.5
2023-03-16T06:49:36.918Z,73.8
2023-03-16T06:50:36.924Z,73.4
2023-03-16T06:51:36.927Z,73.2
2023-03-16T06:52:36.919Z,72.9
2023-03-16T06:53:36.940Z,73.1
2023-03-16T06:55:36.931Z,74.4
2023-03-16T06:56:36.916Z,74.2
2023-03-16T06:57:36.925Z,74
2023-03-16T06:58:36.936Z,73.5
2023-03-16T06:59:36.926Z,73.5
2023-03-16T07:00:36.936Z,72.9
2023-03-16T07:01:37.044Z,72.6
2023-03-16T07:03:36.929Z,71.8
2023-03-16T07:04:36.981Z,71.8
2023-03-16T07:05:36.959Z,72.2
2023-03-16T07:06:36.932Z,71.9
2023-03-16T07:08:36.922Z,72.4
2023-03-16T07:09:39.558Z,72.4
2023-03-16T07:10:36.920Z,71
2023-03-16T07:11:36.910Z,70.9
2023-03-16T07:12:36.912Z,70.6
2023-03-16T07:13:36.916Z,70.2
2023-03-16T07:14:36.908Z,69.4
2023-03-16T07:16:37.012Z,66.5
2023-03-16T07:17:36.929Z,65.8
2023-03-16T07:18:36.915Z,65.2
2023-03-16T07:19:36.912Z,65
2023-03-16T07:20:36.917Z,65
2023-03-16T07:21:36.917Z,64.4
2023-03-16T07:22:36.914Z,64.5
2023-03-16T07:23:36.933Z,64.6
2023-03-16T07:24:36.916Z,64.5
2023-03-16T07:25:36.923Z,64
2023-03-16T07:26:36.919Z,64.9
2023-03-16T07:27:36.914Z,65.4
2023-03-16T07:29:36.907Z,67
2023-03-16T07:30:36.916Z,66.9
2023-03-16T07:31:36.965Z,66.6
2023-03-16T07:32:36.987Z,66.8
2023-03-16T07:33:36.913Z,67.4
2023-03-16T07:35:36.982Z,67.8
2023-03-16T07:36:36.923Z,67.6
2023-03-16T07:37:36.949Z,67.8
2023-03-16T07:38:36.935Z,67.4
2023-03-16T07:39:36.925Z,67
2023-03-16T07:40:36.919Z,66.1
2023-03-16T07:41:36.911Z,65.2
2023-03-16T07:43:36.982Z,65.2
2023-03-16T07:44:36.903Z,65.5
2023-03-16T07:45:37.045Z,66.2
2023-03-16T07:46:36.948Z,65.8
2023-03-16T07:48:36.900Z,66.6
2023-03-16T07:49:36.909Z,66.7
2023-03-16T07:50:36.910Z,66.8
2023-03-16T07:51:36.941Z,66.3
2023-03-16T07:52:37.652Z,66.1
2023-03-16T07:53:36.899Z,65.9
2023-03-16T07:54:36.896Z,66
2023-03-16T07:56:48.234Z,65.3
2023-03-16T07:57:36.927Z,64.9
2023-03-16T07:58:36.907Z,64.5
2023-03-16T07:59:36.910Z,63.3
2023-03-16T08:00:36.906Z,62.6
2023-03-16T08:01:36.902Z,62.5
2023-03-16T08:02:36.967Z,62.7
2023-03-16T08:03:37.064Z,62.2
2023-03-16T08:04:36.907Z,62.5
2023-03-16T08:05:36.909Z,63.2
2023-03-16T08:06:36.908Z,63.2
2023-03-16T08:07:36.913Z,62.4
2023-03-16T08:09:36.960Z,61.9
2023-03-16T08:10:36.899Z,62.6
2023-03-16T08:12:36.976Z,63.1
2023-03-16T08:13:36.907Z,63.9
2023-03-16T08:14:36.899Z,64.5
2023-03-16T08:15:37.003Z,65.4
2023-03-16T08:16:36.906Z,65.7
2023-03-16T08:17:36.929Z,66
2023-03-16T08:18:36.898Z,66.7
2023-03-16T08:19:36.916Z,67
2023-03-16T08:20:36.903Z,67.1
2023-03-16T08:21:48.825Z,67.6
2023-03-16T08:22:36.912Z,68.5
2023-03-16T08:23:36.906Z,68.1
2023-03-16T08:24:36.894Z,68
2023-03-16T08:25:36.909Z,68
2023-03-16T08:26:39.271Z,67.9
2023-03-16T08:27:36.905Z,68.2
2023-03-16T08:28:36.966Z,68
2023-03-16T08:30:36.895Z,68.3
2023-03-16T08:31:37.028Z,68.6
2023-03-16T08:32:36.996Z,69
2023-03-16T08:33:36.915Z,69.4
2023-03-16T08:34:36.908Z,69.3
2023-03-16T08:36:36.906Z,69.2
2023-03-16T08:37:36.921Z,68.8
2023-03-16T08:38:36.896Z,68.6
2023-03-16T08:39:36.905Z,68.3
2023-03-16T08:40:36.901Z,68.1
2023-03-16T08:41:36.897Z,68.4
2023-03-16T08:42:36.933Z,68.5
2023-03-16T08:43:36.899Z,68.7
2023-03-16T08:44:36.921Z,69.3
2023-03-16T08:45:36.917Z,69.6
2023-03-16T08:46:37.045Z,70.1
2023-03-16T08:47:36.923Z,70.2
2023-03-16T08:49:36.908Z,70.7
2023-03-16T08:50:36.897Z,70.9
2023-03-16T08:51:36.900Z,71
2023-03-16T08:52:36.965Z,70.8
2023-03-16T08:53:36.886Z,70.1
2023-03-16T08:54:36.906Z,70.6
2023-03-16T08:55:36.906Z,70.9
2023-03-16T08:57:36.925Z,70.8
2023-03-16T08:58:36.897Z,69.8
2023-03-16T08:59:36.898Z,69.5
2023-03-16T09:00:36.898Z,69
2023-03-16T09:02:36.903Z,69.9
2023-03-16T09:03:36.892Z,70.5
2023-03-16T09:04:37.021Z,70.1
2023-03-16T09:05:36.930Z,69.5
2023-03-16T09:06:36.905Z,68.7
2023-03-16T09:07:36.932Z,69
2023-03-16T09:08:36.885Z,68.7
2023-03-16T09:09:36.907Z,69
2023-03-16T09:10:36.922Z,68.8
2023-03-16T09:11:36.906Z,68.4
2023-03-16T09:12:36.885Z,68.9
2023-03-16T09:13:36.890Z,68.5
2023-03-16T09:14:36.884Z,68.3
2023-03-16T09:15:36.898Z,69.1
2023-03-16T09:16:36.965Z,69
2023-03-16T09:18:36.897Z,69.2
2023-03-16T09:19:50.687Z,69.5
2023-03-16T09:20:37.128Z,68.9
2023-03-16T09:21:36.881Z,68.8
2023-03-16T09:23:36.882Z,68.3
2023-03-16T09:24:36.909Z,67.9
2023-03-16T09:25:36.908Z,67.3
2023-03-16T09:26:36.926Z,67.9
2023-03-16T09:27:36.891Z,66
2023-03-16T09:28:36.887Z,65.5
2023-03-16T09:29:36.908Z,65
2023-03-16T09:30:36.892Z,64.9
2023-03-16T09:31:36.955Z,63.6
2023-03-16T09:32:36.942Z,63.4
2023-03-16T09:33:36.898Z,63.8
2023-03-16T09:34:36.915Z,63.4
2023-03-16T09:35:37.041Z,63.3
2023-03-16T09:36:36.889Z,63.7
2023-03-16T09:37:44.911Z,63.2
2023-03-16T09:39:36.957Z,63.5
2023-03-16T09:40:36.932Z,63.3
2023-03-16T09:41:36.882Z,63
2023-03-16T09:42:36.897Z,62.5
2023-03-16T09:44:36.895Z,62
2023-03-16T09:45:36.912Z,62.4
2023-03-16T09:46:36.888Z,63
2023-03-16T09:47:36.889Z,62.5
2023-03-16T09:48:36.895Z,62.3
2023-03-16T09:49:36.907Z,61.8
2023-03-16T09:50:47.799Z,63.5
2023-03-16T09:52:36.885Z,62.9
2023-03-16T09:53:36.883Z,62.5
2023-03-16T09:54:36.884Z,63.1
2023-03-16T09:55:36.885Z,63.7
2023-03-16T09:56:36.884Z,65.1
2023-03-16T09:57:36.883Z,66.2
2023-03-16T09:58:36.981Z,68
2023-03-16T10:00:36.873Z,68.7
2023-03-16T10:01:36.885Z,68.9
2023-03-16T10:02:36.887Z,69.1
2023-03-16T10:03:36.960Z,68.8
2023-03-16T10:05:36.893Z,69.2
2023-03-16T10:06:36.898Z,69.9
2023-03-16T10:07:36.897Z,69.6
2023-03-16T10:08:36.884Z,69.2
2023-03-16T10:09:36.889Z,68.8
2023-03-16T10:10:36.895Z,69.5
2023-03-16T10:11:36.917Z,69.1
2023-03-16T10:13:36.880Z,67.5
2023-03-16T10:14:36.951Z,67.4
2023-03-16T10:15:36.873Z,67.3
2023-03-16T10:16:36.934Z,67.1
2023-03-16T10:17:36.889Z,67.3
2023-03-16T10:18:36.870Z,67.6
2023-03-16T10:19:36.881Z,67.6
2023-03-16T10:20:36.881Z,68.2
2023-03-16T10:21:36.965Z,68.2
2023-03-16T10:22:36.892Z,67.6
2023-03-16T10:24:36.913Z,67.2
2023-03-16T10:25:36.877Z,66.7
2023-03-16T10:26:36.908Z,66.4
2023-03-16T10:27:36.881Z,66.3
2023-03-16T10:28:36.894Z,66.9
2023-03-16T10:29:36.948Z,67.5
2023-03-16T10:30:36.870Z,67.1
2023-03-16T10:31:36.916Z,67
2023-03-16T10:32:36.970Z,66.7
2023-03-16T10:33:36.907Z,66.8
2023-03-16T10:34:36.890Z,66.5
2023-03-16T10:35:36.873Z,67.3
2023-03-16T10:36:36.965Z,67.7
2023-03-16T10:37:36.887Z,68.1
2023-03-16T10:38:36.873Z,68.8
2023-03-16T10:39:36.873Z,68.2
2023-03-16T10:40:36.871Z,68.5
2023-03-16T10:41:36.876Z,68.8
2023-03-16T10:42:36.881Z,68.7
2023-03-16T10:43:36.888Z,68.8
2023-03-16T10:45:36.941Z,68.1
2023-03-16T10:46:37.016Z,67.8
2023-03-16T10:47:36.880Z,67.5
2023-03-16T10:48:36.876Z,66.6
2023-03-16T10:49:36.872Z,66.9
2023-03-16T10:50:36.883Z,66.7
2023-03-16T10:51:36.867Z,66.9
2023-03-16T10:53:36.870Z,66.1
2023-03-16T10:54:36.882Z,66
2023-03-16T10:55:36.876Z,66
2023-03-16T10:56:36.878Z,65.9
2023-03-16T10:57:36.884Z,65.8
2023-03-16T10:58:36.875Z,65.2
2023-03-16T10:59:36.885Z,64.6
2023-03-16T11:00:36.885Z,64.3
2023-03-16T11:01:36.981Z,63.7
2023-03-16T11:02:36.882Z,62.9
2023-03-16T11:03:38.298Z,63.6
2023-03-16T11:04:36.922Z,63.7
2023-03-16T11:06:36.879Z,61.8
2023-03-16T11:07:36.887Z,62.2
2023-03-16T11:08:36.888Z,61
2023-03-16T11:09:36.876Z,60
2023-03-16T11:10:46.082Z,59.4
2023-03-16T11:11:36.888Z,58.5
2023-03-16T11:12:36.890Z,58
2023-03-16T11:14:36.880Z,57.3
2023-03-16T11:15:36.891Z,57.3
2023-03-16T11:16:36.981Z,56.6
2023-03-16T11:17:36.878Z,57.3
2023-03-16T11:18:36.896Z,56.5
2023-03-16T11:19:36.884Z,55.9
2023-03-16T11:20:37.074Z,55.2
2023-03-16T11:21:37.003Z,54.3
2023-03-16T11:22:36.886Z,54.6
2023-03-16T11:23:36.894Z,55
2023-03-16T11:24:36.878Z,55.1
2023-03-16T11:25:36.872Z,54.2
2023-03-16T11:26:36.926Z,53.1
2023-03-16T11:27:36.891Z,52.5
2023-03-16T11:28:36.885Z,51.6
2023-03-16T11:29:36.883Z,51
2023-03-16T11:30:36.883Z,50.7
2023-03-16T11:31:36.885Z,50.5
2023-03-16T11:33:36.880Z,48
2023-03-16T11:34:36.880Z,48.1
2023-03-16T11:35:39.980Z,47.5
2023-03-16T11:36:36.945Z,47.2
2023-03-16T11:38:36.877Z,46.6
2023-03-16T11:39:36.885Z,46.3
2023-03-16T11:40:36.873Z,45.5
2023-03-16T11:41:36.944Z,45.4
2023-03-16T11:42:36.890Z,44.7
2023-03-16T11:43:36.879Z,44.7
2023-03-16T11:44:36.882Z,44.2
2023-03-16T11:46:37.007Z,43.3
2023-03-16T11:47:36.881Z,42.4
2023-03-16T11:48:36.883Z,42.1
2023-03-16T11:49:36.888Z,41.8
2023-03-16T11:50:36.876Z,40
2023-03-16T11:51:36.880Z,39.5
2023-03-16T11:52:36.872Z,40.1
2023-03-16T11:54:36.907Z,39.6
2023-03-16T11:55:36.879Z,39.3
2023-03-16T11:56:36.874Z,38.9
2023-03-16T11:57:36.866Z,38.7
2023-03-16T11:59:36.876Z,38.7
2023-03-16T12:00:36.867Z,38.1
2023-03-16T12:01:38.256Z,38.3
2023-03-16T12:02:37.011Z,38.4
2023-03-16T12:03:37.100Z,38.9
2023-03-16T12:04:36.914Z,39
2023-03-16T12:05:36.874Z,39.5
2023-03-16T12:07:36.871Z,40.9
2023-03-16T12:08:36.862Z,40.9
2023-03-16T12:09:36.866Z,41.3
2023-03-16T12:10:36.863Z,41.4
2023-03-16T12:11:36.899Z,42.2
2023-03-16T12:12:36.865Z,42.4
2023-03-16T12:13:36.931Z,42.6
2023-03-16T12:15:36.866Z,43.5
2023-03-16T12:16:48.783Z,43.7
2023-03-16T12:17:36.862Z,43.8
2023-03-16T12:18:36.863Z,43.7
2023-03-16T12:20:36.858Z,43.7
2023-03-16T12:21:36.857Z,43.5
2023-03-16T12:22:36.865Z,44
2023-03-16T12:23:36.897Z,44.2
2023-03-16T12:24:36.861Z,44.8
2023-03-16T12:25:36.924Z,44.6
2023-03-16T12:26:36.859Z,44.8
2023-03-16T12:27:36.872Z,45
2023-03-16T12:28:36.864Z,44.9
2023-03-16T12:29:38.140Z,44.8
2023-03-16T12:30:36.853Z,45.1
2023-03-16T12:31:36.926Z,45.1
2023-03-16T12:32:36.994Z,44.8
2023-03-16T12:33:36.865Z,45
2023-03-16T12:34:36.857Z,45.5
2023-03-16T12:36:36.938Z,45.7
2023-03-16T12:37:36.858Z,46
2023-03-16T12:38:36.854Z,45.5
2023-03-16T12:39:36.860Z,45.9
2023-03-16T12:41:36.857Z,45.9
2023-03-16T12:42:36.858Z,45.9
2023-03-16T12:43:36.925Z,46.2
2023-03-16T12:44:36.866Z,46.3
2023-03-16T12:45:36.922Z,46.3
2023-03-16T12:46:36.864Z,46
2023-03-16T12:47:36.868Z,46.5
2023-03-16T12:49:36.870Z,46.3
2023-03-16T12:50:36.850Z,46.5
2023-03-16T12:51:36.869Z,46.5
2023-03-16T12:52:36.863Z,46.6
2023-03-16T12:53:36.851Z,46.2
2023-03-16T12:54:36.860Z,46.2
2023-03-16T12:55:36.856Z,46.4
2023-03-16T12:57:38.182Z,46.2
2023-03-16T12:58:36.859Z,46.5
2023-03-16T12:59:36.859Z,46.7
2023-03-16T13:00:36.859Z,47.1
2023-03-16T13:02:36.856Z,47.8
2023-03-16T13:03:36.856Z,48.4
2023-03-16T13:04:36.889Z,48.4
2023-03-16T13:05:36.869Z,48
2023-03-16T13:06:36.926Z,48.2
2023-03-16T13:07:36.857Z,48.3
2023-03-16T13:08:36.864Z,48.1
2023-03-16T13:10:36.921Z,47.8
2023-03-16T13:11:36.855Z,47.1
2023-03-16T13:12:36.977Z,47.5
2023-03-16T13:13:36.858Z,47.4
2023-03-16T13:14:36.866Z,47.4
2023-03-16T13:15:36.871Z,46.9
2023-03-16T13:16:36.963Z,46.7
2023-03-16T13:17:38.981Z,46.9
2023-03-16T13:18:36.865Z,46.5
2023-03-16T13:19:36.862Z,46.4
2023-03-16T13:20:37.095Z,46.8
2023-03-16T13:21:36.873Z,47
2023-03-16T13:23:37.678Z,46.5
2023-03-16T13:24:36.863Z,46.2
2023-03-16T13:25:36.860Z,46
2023-03-16T13:26:36.857Z,45.9
2023-03-16T13:27:36.946Z,45.6
2023-03-16T13:29:44.136Z,46.2
2023-03-16T13:30:36.957Z,46.7
2023-03-16T13:31:36.877Z,47
2023-03-16T13:32:36.994Z,47.1
2023-03-16T13:33:36.899Z,46.8
2023-03-16T13:34:36.859Z,47
2023-03-16T13:35:39.142Z,47.1
2023-03-16T13:36:36.866Z,47
2023-03-16T13:37:36.862Z,47.7
2023-03-16T13:38:36.871Z,47.4
2023-03-16T13:39:36.864Z,47.1
2023-03-16T13:40:36.855Z,46.6
2023-03-16T13:42:36.874Z,47.3
2023-03-16T13:43:36.885Z,46.9
2023-03-16T13:44:36.862Z,47.4
2023-03-16T13:45:36.936Z,47.7
2023-03-16T13:46:36.857Z,47.9
2023-03-16T13:47:36.864Z,47.8
2023-03-16T13:48:36.860Z,47.3
2023-03-16T13:50:36.865Z,48
2023-03-16T13:51:36.863Z,48.1
2023-03-16T13:52:36.868Z,48.5
2023-03-16T13:53:36.868Z,48.6
2023-03-16T13:54:36.859Z,48.9
2023-03-16T13:55:36.894Z,49.1
2023-03-16T13:56:36.861Z,49.1
2023-03-16T13:57:36.887Z,48.7
2023-03-16T13:58:36.890Z,48.3
2023-03-16T13:59:36.870Z,48.1
2023-03-16T14:00:36.863Z,48.2
2023-03-16T14:01:36.892Z,48.9
2023-03-16T14:03:36.873Z,49.5
2023-03-16T14:04:36.860Z,49.4
2023-03-16T14:05:36.863Z,49.5
2023-03-16T14:06:36.853Z,49.7
2023-03-16T14:07:36.872Z,49.4
2023-03-16T14:08:37.246Z,49.3
2023-03-16T14:09:36.880Z,49.5
2023-03-16T14:11:36.861Z,49.6
2023-03-16T14:12:36.871Z,49.5
2023-03-16T14:13:36.855Z,49.3
2023-03-16T14:14:36.851Z,49.6
2023-03-16T14:15:36.932Z,49.3
2023-03-16T14:16:36.858Z,49.1
2023-03-16T14:17:36.854Z,49.2
2023-03-16T14:18:36.887Z,49.1
2023-03-16T14:19:36.852Z,49.5
2023-03-16T14:20:41.240Z,49.8
2023-03-16T14:21:36.860Z,49.7
2023-03-16T14:22:36.866Z,50
2023-03-16T14:24:36.860Z,49.3
2023-03-16T14:25:36.921Z,49.7
2023-03-16T14:26:36.856Z,50.1
2023-03-16T14:27:36.860Z,49.7
2023-03-16T14:28:36.864Z,49.1
2023-03-16T14:30:36.863Z,49.5
2023-03-16T14:31:37.012Z,49.2
2023-03-16T14:32:36.920Z,48.8
2023-03-16T14:33:36.853Z,49.1
2023-03-16T14:34:36.860Z,48.7
2023-03-16T14:35:36.881Z,48.7
2023-03-16T14:37:36.859Z,47.9
2023-03-16T14:38:36.873Z,48.6
2023-03-16T14:39:36.857Z,49.2
2023-03-16T14:40:38.778Z,48.7
2023-03-16T14:41:36.858Z,48.8
2023-03-16T14:42:36.857Z,48.9
2023-03-16T14:43:36.885Z,48.8
2023-03-16T14:44:36.929Z,49
2023-03-16T14:45:36.860Z,49.1
2023-03-16T14:46:36.915Z,49